This is the latest recevied weather packets stored in our database for station/object GW1469. If no packets are shown the sender has not sent any weather packets the latest 10 day(s).
| Time | Temp. | Humidity | Pressure | Rain* | Wind** | Luminosity | Snow |
|---|---|---|---|---|---|---|---|
| 1777717127 | 3.33° C | 94% | 1025 hPa | 0 mm | - | - | - |
| 1777716391 | 3.89° C | 94% | 1024.7 hPa | 0 mm | - | - | - |
| 1777705945 | 7.78° C | 70% | 1025.3 hPa | 0 mm | - | - | - |
| 1777701647 | 8.89° C | 68% | 1025.7 hPa | 0 mm | - | - | - |
| 1777701289 | 8.89° C | 68% | 1025.7 hPa | 0 mm | - | - | - |
| 1777699821 | 9.44° C | 71% | 1026 hPa | 0 mm | - | - | - |
| 1777698388 | 10° C | 69% | 1025.7 hPa | 0 mm | - | - | - |
| 1777695875 | 10° C | 67% | 1025.3 hPa | 0 mm | - | - | - |
| 1777691175 | 11.67° C | 65% | 1025.3 hPa | 0 mm | - | - | - |
| 1777681112 | 13.33° C | 65% | 1023 hPa | 0 mm | - | - | - |
| 1777680766 | 13.33° C | 65% | 1023 hPa | 0 mm | - | - | - |
| 1777679693 | 14.44° C | 62% | 1022.3 hPa | 0 mm | - | - | - |
| 1777674654 | 17.78° C | 43% | 1021.3 hPa | 0 mm | - | - | - |
| 1777661321 | 20.56° C | 35% | 1022 hPa | 0 mm | - | - | - |
| 1777645450 | 11.67° C | 70% | 1024 hPa | 0 mm | - | - | - |
| 1777643291 | 7.78° C | 87% | 1024.3 hPa | 0 mm | - | - | - |
| 1777630365 | 2.78° C | 99% | 1024.3 hPa | 0 mm | - | - | - |
| 1777629263 | 2.78° C | 99% | 1024.3 hPa | 0 mm | - | - | - |
| 1777628901 | 2.78° C | 99% | 1024.3 hPa | 0 mm | - | - | - |
| 1777625668 | 2.78° C | 99% | 1025 hPa | 0 mm | - | - | - |
| 1777624612 | 2.22° C | 99% | 1025 hPa | 0 mm | - | - | - |
| 1777624253 | 2.22° C | 99% | 1025 hPa | 0 mm | - | - | - |
| 1777623876 | 2.22° C | 99% | 1025 hPa | 0 mm | - | - | - |
| 1777623144 | 2.78° C | 99% | 1025 hPa | 0 mm | - | - | - |
| 1777618453 | 3.33° C | 99% | 1025.3 hPa | 0 mm | - | - | - |
* Rain since midnight (hover to see other rain measurements)
** Current wind speed in m/s (hover to see current wind gust speed)